Terminal Aerodrome Forecast
Issued by NWS

Home | Current Version | Previous Version | Text Only | Print | Product List | Glossary Off
Versions: 1 2 3 4 5 6 7 8 9 10 11 12 13 14 15 16 17

000
FTUS43 KICT 271120
TAFCNU
TAF
KCNU 271120Z 2712/2812 06010KT P6SM BKN150
     FM271600 06014G20KT P6SM BKN150
     FM280300 02007KT P6SM BKN150=

USA.gov is the U.S. government's official web portal to all federal, state and local government web resources and services.